sensor_id;sensor_type;location;lat;lon;timestamp;P1;durP1;ratioP1;P2;durP2;ratioP2
40286;SDS011;25998;46.604;13.610;2023-03-31T00:01:53;9.50;;;7.85;;
40286;SDS011;25998;46.604;13.610;2023-03-31T00:05:07;8.77;;;7.18;;
40286;SDS011;25998;46.604;13.610;2023-03-31T00:08:19;8.73;;;7.30;;
40286;SDS011;25998;46.604;13.610;2023-03-31T00:11:30;9.93;;;7.38;;
40286;SDS011;25998;46.604;13.610;2023-03-31T00:14:41;11.90;;;8.13;;
40286;SDS011;25998;46.604;13.610;2023-03-31T00:17:53;13.38;;;8.93;;
40286;SDS011;25998;46.604;13.610;2023-03-31T00:21:08;12.68;;;8.18;;
40286;SDS011;25998;46.604;13.610;2023-03-31T00:24:23;11.00;;;7.60;;
40286;SDS011;25998;46.604;13.610;2023-03-31T00:27:34;10.63;;;7.13;;
40286;SDS011;25998;46.604;13.610;2023-03-31T00:30:45;10.70;;;8.20;;
40286;SDS011;25998;46.604;13.610;2023-03-31T00:33:56;12.88;;;7.78;;
40286;SDS011;25998;46.604;13.610;2023-03-31T00:37:07;10.68;;;7.47;;
40286;SDS011;25998;46.604;13.610;2023-03-31T00:40:18;11.35;;;8.77;;
40286;SDS011;25998;46.604;13.610;2023-03-31T00:43:30;10.68;;;7.60;;
40286;SDS011;25998;46.604;13.610;2023-03-31T00:46:56;12.02;;;8.15;;
40286;SDS011;25998;46.604;13.610;2023-03-31T00:50:18;10.13;;;7.25;;
40286;SDS011;25998;46.604;13.610;2023-03-31T00:53:32;10.68;;;8.15;;
40286;SDS011;25998;46.604;13.610;2023-03-31T00:56:46;11.57;;;8.00;;
40286;SDS011;25998;46.604;13.610;2023-03-31T01:00:00;12.25;;;7.75;;
40286;SDS011;25998;46.604;13.610;2023-03-31T01:03:40;12.10;;;8.32;;
40286;SDS011;25998;46.604;13.610;2023-03-31T01:06:59;12.10;;;8.20;;
40286;SDS011;25998;46.604;13.610;2023-03-31T01:10:35;12.48;;;8.85;;
40286;SDS011;25998;46.604;13.610;2023-03-31T01:13:50;10.95;;;8.45;;
40286;SDS011;25998;46.604;13.610;2023-03-31T01:17:05;11.20;;;8.32;;
40286;SDS011;25998;46.604;13.610;2023-03-31T01:20:29;14.30;;;7.45;;
40286;SDS011;25998;46.604;13.610;2023-03-31T01:47:58;8.63;;;7.22;;
40286;SDS011;25998;46.604;13.610;2023-03-31T02:02:04;8.50;;;6.63;;
40286;SDS011;25998;46.604;13.610;2023-03-31T02:05:23;8.23;;;6.80;;
40286;SDS011;25998;46.604;13.610;2023-03-31T02:08:39;8.73;;;6.18;;
40286;SDS011;25998;46.604;13.610;2023-03-31T02:12:02;8.38;;;6.18;;
40286;SDS011;25998;46.604;13.610;2023-03-31T02:15:23;8.32;;;6.25;;
40286;SDS011;25998;46.604;13.610;2023-03-31T02:18:37;7.97;;;6.22;;
40286;SDS011;25998;46.604;13.610;2023-03-31T02:21:50;9.80;;;6.25;;
40286;SDS011;25998;46.604;13.610;2023-03-31T02:25:04;10.85;;;6.95;;
40286;SDS011;25998;46.604;13.610;2023-03-31T02:28:21;10.77;;;7.40;;
40286;SDS011;25998;46.604;13.610;2023-03-31T02:35:05;10.10;;;7.73;;
40286;SDS011;25998;46.604;13.610;2023-03-31T02:38:19;12.75;;;7.47;;
40286;SDS011;25998;46.604;13.610;2023-03-31T02:41:30;10.25;;;7.10;;
40286;SDS011;25998;46.604;13.610;2023-03-31T02:44:42;9.70;;;5.80;;
40286;SDS011;25998;46.604;13.610;2023-03-31T02:47:53;9.45;;;6.40;;
40286;SDS011;25998;46.604;13.610;2023-03-31T03:19:30;8.43;;;5.93;;
40286;SDS011;25998;46.604;13.610;2023-03-31T03:22:41;7.85;;;5.20;;
40286;SDS011;25998;46.604;13.610;2023-03-31T03:25:52;7.18;;;5.32;;
40286;SDS011;25998;46.604;13.610;2023-03-31T03:29:03;9.52;;;6.25;;
40286;SDS011;25998;46.604;13.610;2023-03-31T03:32:14;10.15;;;5.80;;
40286;SDS011;25998;46.604;13.610;2023-03-31T03:35:25;7.88;;;5.60;;
40286;SDS011;25998;46.604;13.610;2023-03-31T03:38:36;9.73;;;5.40;;
40286;SDS011;25998;46.604;13.610;2023-03-31T03:41:47;8.77;;;4.97;;
40286;SDS011;25998;46.604;13.610;2023-03-31T03:44:57;7.05;;;6.05;;
40286;SDS011;25998;46.604;13.610;2023-03-31T03:48:08;7.68;;;5.50;;
40286;SDS011;25998;46.604;13.610;2023-03-31T03:51:19;10.80;;;5.97;;
40286;SDS011;25998;46.604;13.610;2023-03-31T03:54:30;8.30;;;5.75;;
40286;SDS011;25998;46.604;13.610;2023-03-31T03:57:41;8.43;;;5.47;;
40286;SDS011;25998;46.604;13.610;2023-03-31T04:00:52;7.47;;;5.63;;
40286;SDS011;25998;46.604;13.610;2023-03-31T04:04:03;8.43;;;6.28;;
40286;SDS011;25998;46.604;13.610;2023-03-31T04:07:14;8.52;;;5.25;;
40286;SDS011;25998;46.604;13.610;2023-03-31T04:10:25;7.20;;;5.75;;
40286;SDS011;25998;46.604;13.610;2023-03-31T04:13:36;6.60;;;5.00;;
40286;SDS011;25998;46.604;13.610;2023-03-31T04:16:47;8.18;;;5.53;;
40286;SDS011;25998;46.604;13.610;2023-03-31T04:20:00;9.02;;;5.80;;
40286;SDS011;25998;46.604;13.610;2023-03-31T04:23:22;8.75;;;5.90;;
40286;SDS011;25998;46.604;13.610;2023-03-31T04:26:35;7.68;;;5.18;;
40286;SDS011;25998;46.604;13.610;2023-03-31T04:29:52;8.48;;;5.00;;
40286;SDS011;25998;46.604;13.610;2023-03-31T04:33:05;8.45;;;5.78;;
40286;SDS011;25998;46.604;13.610;2023-03-31T04:36:16;8.70;;;5.20;;
40286;SDS011;25998;46.604;13.610;2023-03-31T04:39:27;8.27;;;5.82;;
40286;SDS011;25998;46.604;13.610;2023-03-31T04:42:42;8.57;;;5.95;;
40286;SDS011;25998;46.604;13.610;2023-03-31T04:45:53;11.70;;;6.47;;
40286;SDS011;25998;46.604;13.610;2023-03-31T04:49:04;10.18;;;6.00;;
40286;SDS011;25998;46.604;13.610;2023-03-31T04:52:15;11.70;;;6.43;;
40286;SDS011;25998;46.604;13.610;2023-03-31T04:55:26;12.02;;;6.43;;
40286;SDS011;25998;46.604;13.610;2023-03-31T04:58:37;11.98;;;6.70;;
40286;SDS011;25998;46.604;13.610;2023-03-31T05:01:48;288.75;;;22.33;;
40286;SDS011;25998;46.604;13.610;2023-03-31T05:04:59;68.60;;;9.85;;
40286;SDS011;25998;46.604;13.610;2023-03-31T05:08:10;13.43;;;6.55;;
40286;SDS011;25998;46.604;13.610;2023-03-31T05:11:21;11.25;;;6.72;;
40286;SDS011;25998;46.604;13.610;2023-03-31T05:14:32;10.88;;;6.13;;
40286;SDS011;25998;46.604;13.610;2023-03-31T05:17:43;11.40;;;6.35;;
40286;SDS011;25998;46.604;13.610;2023-03-31T05:20:53;8.40;;;6.22;;
40286;SDS011;25998;46.604;13.610;2023-03-31T05:24:04;7.38;;;5.28;;
40286;SDS011;25998;46.604;13.610;2023-03-31T05:27:15;14.38;;;6.15;;
40286;SDS011;25998;46.604;13.610;2023-03-31T05:30:26;10.63;;;6.32;;
40286;SDS011;25998;46.604;13.610;2023-03-31T05:33:39;15.23;;;7.60;;
40286;SDS011;25998;46.604;13.610;2023-03-31T05:36:50;8.10;;;5.40;;
40286;SDS011;25998;46.604;13.610;2023-03-31T05:40:03;10.43;;;5.97;;
40286;SDS011;25998;46.604;13.610;2023-03-31T05:43:15;7.30;;;4.75;;
40286;SDS011;25998;46.604;13.610;2023-03-31T05:46:25;7.28;;;4.35;;
40286;SDS011;25998;46.604;13.610;2023-03-31T05:49:36;11.57;;;5.20;;
40286;SDS011;25998;46.604;13.610;2023-03-31T05:52:47;22.40;;;7.78;;
40286;SDS011;25998;46.604;13.610;2023-03-31T05:56:02;24.20;;;7.85;;
40286;SDS011;25998;46.604;13.610;2023-03-31T05:59:15;21.17;;;7.97;;
40286;SDS011;25998;46.604;13.610;2023-03-31T06:02:27;15.55;;;7.03;;
40286;SDS011;25998;46.604;13.610;2023-03-31T06:05:38;18.23;;;7.57;;
40286;SDS011;25998;46.604;13.610;2023-03-31T06:08:50;8.40;;;4.93;;
40286;SDS011;25998;46.604;13.610;2023-03-31T06:12:01;9.85;;;6.03;;
40286;SDS011;25998;46.604;13.610;2023-03-31T06:15:12;10.57;;;4.80;;
40286;SDS011;25998;46.604;13.610;2023-03-31T06:18:23;15.95;;;5.95;;
40286;SDS011;25998;46.604;13.610;2023-03-31T06:21:37;20.50;;;7.00;;
40286;SDS011;25998;46.604;13.610;2023-03-31T06:24:48;16.17;;;7.03;;
40286;SDS011;25998;46.604;13.610;2023-03-31T06:27:59;14.00;;;7.22;;
40286;SDS011;25998;46.604;13.610;2023-03-31T06:31:11;15.32;;;6.72;;
40286;SDS011;25998;46.604;13.610;2023-03-31T06:34:23;16.20;;;6.20;;
40286;SDS011;25998;46.604;13.610;2023-03-31T06:37:34;15.55;;;6.95;;
40286;SDS011;25998;46.604;13.610;2023-03-31T06:40:45;12.80;;;6.78;;
40286;SDS011;25998;46.604;13.610;2023-03-31T06:43:56;19.73;;;7.53;;
40286;SDS011;25998;46.604;13.610;2023-03-31T06:47:07;15.65;;;6.95;;
40286;SDS011;25998;46.604;13.610;2023-03-31T06:50:17;13.23;;;6.70;;
40286;SDS011;25998;46.604;13.610;2023-03-31T06:53:28;12.63;;;5.90;;
40286;SDS011;25998;46.604;13.610;2023-03-31T06:56:39;17.67;;;6.80;;
40286;SDS011;25998;46.604;13.610;2023-03-31T06:59:50;17.77;;;6.82;;
40286;SDS011;25998;46.604;13.610;2023-03-31T07:03:02;15.68;;;7.40;;
40286;SDS011;25998;46.604;13.610;2023-03-31T07:06:13;16.45;;;10.05;;
40286;SDS011;25998;46.604;13.610;2023-03-31T07:09:24;10.60;;;7.85;;
40286;SDS011;25998;46.604;13.610;2023-03-31T07:12:35;16.45;;;9.30;;
40286;SDS011;25998;46.604;13.610;2023-03-31T07:15:46;12.15;;;8.18;;
40286;SDS011;25998;46.604;13.610;2023-03-31T07:18:58;15.98;;;8.40;;
40286;SDS011;25998;46.604;13.610;2023-03-31T07:22:08;14.30;;;8.02;;
40286;SDS011;25998;46.604;13.610;2023-03-31T07:25:20;17.92;;;9.23;;
40286;SDS011;25998;46.604;13.610;2023-03-31T07:28:30;16.55;;;10.95;;
40286;SDS011;25998;46.604;13.610;2023-03-31T07:31:42;11.23;;;8.30;;
40286;SDS011;25998;46.604;13.610;2023-03-31T07:34:55;14.50;;;9.25;;
40286;SDS011;25998;46.604;13.610;2023-03-31T07:38:07;15.55;;;10.48;;
40286;SDS011;25998;46.604;13.610;2023-03-31T07:41:20;13.57;;;10.07;;
40286;SDS011;25998;46.604;13.610;2023-03-31T07:44:34;12.23;;;9.13;;
40286;SDS011;25998;46.604;13.610;2023-03-31T07:47:46;11.88;;;8.23;;
40286;SDS011;25998;46.604;13.610;2023-03-31T07:50:58;12.95;;;8.35;;
40286;SDS011;25998;46.604;13.610;2023-03-31T07:54:08;9.80;;;6.53;;
40286;SDS011;25998;46.604;13.610;2023-03-31T07:57:19;7.68;;;6.18;;
40286;SDS011;25998;46.604;13.610;2023-03-31T08:00:30;6.65;;;5.95;;
40286;SDS011;25998;46.604;13.610;2023-03-31T08:03:42;9.15;;;6.40;;
40286;SDS011;25998;46.604;13.610;2023-03-31T08:06:54;8.60;;;6.60;;
40286;SDS011;25998;46.604;13.610;2023-03-31T08:10:06;17.95;;;7.55;;
40286;SDS011;25998;46.604;13.610;2023-03-31T08:13:19;11.82;;;6.70;;
40286;SDS011;25998;46.604;13.610;2023-03-31T08:16:31;22.25;;;7.85;;
40286;SDS011;25998;46.604;13.610;2023-03-31T08:19:42;8.45;;;6.95;;
40286;SDS011;25998;46.604;13.610;2023-03-31T08:22:52;27.08;;;8.65;;
40286;SDS011;25998;46.604;13.610;2023-03-31T08:26:10;15.20;;;7.80;;
40286;SDS011;25998;46.604;13.610;2023-03-31T08:29:24;10.07;;;7.22;;
40286;SDS011;25998;46.604;13.610;2023-03-31T08:32:35;8.95;;;7.22;;
40286;SDS011;25998;46.604;13.610;2023-03-31T08:35:46;8.90;;;7.97;;
40286;SDS011;25998;46.604;13.610;2023-03-31T08:38:57;11.32;;;7.20;;
40286;SDS011;25998;46.604;13.610;2023-03-31T08:42:16;10.70;;;6.63;;
40286;SDS011;25998;46.604;13.610;2023-03-31T08:45:35;10.23;;;6.82;;
40286;SDS011;25998;46.604;13.610;2023-03-31T08:48:56;9.98;;;7.38;;
40286;SDS011;25998;46.604;13.610;2023-03-31T08:52:13;10.73;;;8.20;;
40286;SDS011;25998;46.604;13.610;2023-03-31T08:55:47;14.13;;;8.98;;
40286;SDS011;25998;46.604;13.610;2023-03-31T08:59:00;11.20;;;8.20;;
40286;SDS011;25998;46.604;13.610;2023-03-31T09:02:33;10.55;;;7.93;;
40286;SDS011;25998;46.604;13.610;2023-03-31T09:06:11;10.93;;;7.50;;
40286;SDS011;25998;46.604;13.610;2023-03-31T09:09:42;19.42;;;8.93;;
40286;SDS011;25998;46.604;13.610;2023-03-31T09:16:34;15.60;;;7.88;;
40286;SDS011;25998;46.604;13.610;2023-03-31T09:19:54;16.40;;;7.93;;
40286;SDS011;25998;46.604;13.610;2023-03-31T09:23:32;11.45;;;8.50;;
40286;SDS011;25998;46.604;13.610;2023-03-31T09:26:44;13.82;;;8.40;;
40286;SDS011;25998;46.604;13.610;2023-03-31T09:33:30;12.25;;;6.75;;
40286;SDS011;25998;46.604;13.610;2023-03-31T09:36:41;12.52;;;6.97;;
40286;SDS011;25998;46.604;13.610;2023-03-31T09:39:53;13.70;;;7.45;;
40286;SDS011;25998;46.604;13.610;2023-03-31T09:43:07;13.65;;;7.13;;
40286;SDS011;25998;46.604;13.610;2023-03-31T09:46:36;32.22;;;9.75;;
40286;SDS011;25998;46.604;13.610;2023-03-31T09:49:48;9.48;;;6.47;;
40286;SDS011;25998;46.604;13.610;2023-03-31T09:52:59;8.45;;;6.65;;
40286;SDS011;25998;46.604;13.610;2023-03-31T09:56:13;10.65;;;6.72;;
40286;SDS011;25998;46.604;13.610;2023-03-31T10:00:28;39.65;;;10.95;;
40286;SDS011;25998;46.604;13.610;2023-03-31T10:03:32;8.50;;;6.60;;
40286;SDS011;25998;46.604;13.610;2023-03-31T10:06:50;8.95;;;6.82;;
40286;SDS011;25998;46.604;13.610;2023-03-31T10:10:02;9.25;;;6.60;;
40286;SDS011;25998;46.604;13.610;2023-03-31T10:13:28;12.10;;;6.93;;
40286;SDS011;25998;46.604;13.610;2023-03-31T10:16:53;16.05;;;7.15;;
40286;SDS011;25998;46.604;13.610;2023-03-31T10:20:16;9.02;;;6.30;;
40286;SDS011;25998;46.604;13.610;2023-03-31T10:23:49;9.02;;;6.95;;
40286;SDS011;25998;46.604;13.610;2023-03-31T10:27:00;9.65;;;7.82;;
40286;SDS011;25998;46.604;13.610;2023-03-31T10:30:15;9.50;;;7.20;;
40286;SDS011;25998;46.604;13.610;2023-03-31T10:33:30;7.97;;;7.18;;
40286;SDS011;25998;46.604;13.610;2023-03-31T10:36:47;9.18;;;6.95;;
40286;SDS011;25998;46.604;13.610;2023-03-31T10:40:04;10.82;;;8.30;;
40286;SDS011;25998;46.604;13.610;2023-03-31T10:43:26;9.80;;;6.50;;
40286;SDS011;25998;46.604;13.610;2023-03-31T10:46:52;9.10;;;7.28;;
40286;SDS011;25998;46.604;13.610;2023-03-31T10:50:03;9.05;;;7.32;;
40286;SDS011;25998;46.604;13.610;2023-03-31T10:53:14;9.43;;;7.43;;
40286;SDS011;25998;46.604;13.610;2023-03-31T11:13:55;11.23;;;5.78;;
40286;SDS011;25998;46.604;13.610;2023-03-31T11:31:32;7.10;;;5.15;;
40286;SDS011;25998;46.604;13.610;2023-03-31T11:42:04;8.50;;;5.18;;
40286;SDS011;25998;46.604;13.610;2023-03-31T11:45:26;6.85;;;5.03;;
40286;SDS011;25998;46.604;13.610;2023-03-31T11:48:45;6.33;;;4.60;;
40286;SDS011;25998;46.604;13.610;2023-03-31T11:52:09;6.70;;;4.22;;
40286;SDS011;25998;46.604;13.610;2023-03-31T11:55:31;6.45;;;4.70;;
40286;SDS011;25998;46.604;13.610;2023-03-31T11:58:46;6.55;;;4.70;;
40286;SDS011;25998;46.604;13.610;2023-03-31T12:05:16;6.55;;;4.38;;
40286;SDS011;25998;46.604;13.610;2023-03-31T12:08:38;6.05;;;4.47;;
40286;SDS011;25998;46.604;13.610;2023-03-31T12:12:04;6.80;;;4.50;;
40286;SDS011;25998;46.604;13.610;2023-03-31T12:15:23;8.35;;;4.35;;
40286;SDS011;25998;46.604;13.610;2023-03-31T12:18:45;7.60;;;4.32;;
40286;SDS011;25998;46.604;13.610;2023-03-31T12:25:22;7.85;;;4.55;;
40286;SDS011;25998;46.604;13.610;2023-03-31T12:28:35;6.78;;;4.55;;
40286;SDS011;25998;46.604;13.610;2023-03-31T12:31:49;8.52;;;4.45;;
40286;SDS011;25998;46.604;13.610;2023-03-31T13:00:17;5.72;;;3.67;;
40286;SDS011;25998;46.604;13.610;2023-03-31T13:06:47;8.38;;;3.75;;
40286;SDS011;25998;46.604;13.610;2023-03-31T13:13:23;7.40;;;4.22;;
40286;SDS011;25998;46.604;13.610;2023-03-31T13:16:35;7.22;;;4.80;;
40286;SDS011;25998;46.604;13.610;2023-03-31T13:19:46;10.10;;;4.60;;
40286;SDS011;25998;46.604;13.610;2023-03-31T13:22:59;7.45;;;4.78;;
40286;SDS011;25998;46.604;13.610;2023-03-31T13:26:37;9.30;;;5.95;;
40286;SDS011;25998;46.604;13.610;2023-03-31T13:29:50;6.90;;;5.32;;
40286;SDS011;25998;46.604;13.610;2023-03-31T13:33:19;11.50;;;4.60;;
40286;SDS011;25998;46.604;13.610;2023-03-31T13:43:58;7.60;;;5.20;;
40286;SDS011;25998;46.604;13.610;2023-03-31T13:47:39;7.85;;;4.68;;
40286;SDS011;25998;46.604;13.610;2023-03-31T13:58:30;5.47;;;3.50;;
40286;SDS011;25998;46.604;13.610;2023-03-31T14:05:38;6.93;;;5.10;;
40286;SDS011;25998;46.604;13.610;2023-03-31T14:08:56;6.25;;;4.28;;
40286;SDS011;25998;46.604;13.610;2023-03-31T14:15:55;5.32;;;3.75;;
40286;SDS011;25998;46.604;13.610;2023-03-31T14:22:43;6.15;;;3.40;;
40286;SDS011;25998;46.604;13.610;2023-03-31T14:26:36;4.65;;;3.30;;
40286;SDS011;25998;46.604;13.610;2023-03-31T14:30:22;5.65;;;3.58;;
40286;SDS011;25998;46.604;13.610;2023-03-31T14:37:23;5.45;;;3.42;;
40286;SDS011;25998;46.604;13.610;2023-03-31T14:40:43;4.47;;;3.63;;
40286;SDS011;25998;46.604;13.610;2023-03-31T14:43:58;5.43;;;3.38;;
40286;SDS011;25998;46.604;13.610;2023-03-31T14:47:14;4.32;;;1.73;;
40286;SDS011;25998;46.604;13.610;2023-03-31T14:50:33;2.90;;;1.60;;
40286;SDS011;25998;46.604;13.610;2023-03-31T14:53:45;2.50;;;1.25;;
40286;SDS011;25998;46.604;13.610;2023-03-31T14:56:56;1.98;;;1.02;;
40286;SDS011;25998;46.604;13.610;2023-03-31T15:00:10;1.60;;;1.10;;
40286;SDS011;25998;46.604;13.610;2023-03-31T15:03:29;1.50;;;0.80;;
40286;SDS011;25998;46.604;13.610;2023-03-31T15:06:45;2.55;;;1.10;;
40286;SDS011;25998;46.604;13.610;2023-03-31T15:09:57;2.42;;;0.80;;
40286;SDS011;25998;46.604;13.610;2023-03-31T15:13:10;5.05;;;1.70;;
40286;SDS011;25998;46.604;13.610;2023-03-31T15:16:29;2.08;;;0.95;;
40286;SDS011;25998;46.604;13.610;2023-03-31T15:19:45;4.43;;;1.35;;
40286;SDS011;25998;46.604;13.610;2023-03-31T15:22:56;2.00;;;0.80;;
40286;SDS011;25998;46.604;13.610;2023-03-31T15:26:08;3.17;;;1.30;;
40286;SDS011;25998;46.604;13.610;2023-03-31T15:29:23;3.08;;;1.20;;
40286;SDS011;25998;46.604;13.610;2023-03-31T15:32:44;5.07;;;1.40;;
40286;SDS011;25998;46.604;13.610;2023-03-31T15:35:55;2.47;;;1.30;;
40286;SDS011;25998;46.604;13.610;2023-03-31T15:39:07;3.53;;;1.55;;
40286;SDS011;25998;46.604;13.610;2023-03-31T15:42:19;4.55;;;1.50;;
40286;SDS011;25998;46.604;13.610;2023-03-31T15:45:47;3.25;;;1.60;;
40286;SDS011;25998;46.604;13.610;2023-03-31T15:49:22;2.33;;;1.17;;
40286;SDS011;25998;46.604;13.610;2023-03-31T15:52:34;38.05;;;34.10;;
40286;SDS011;25998;46.604;13.610;2023-03-31T15:55:47;8.75;;;5.75;;
40286;SDS011;25998;46.604;13.610;2023-03-31T15:59:03;4.10;;;1.85;;
40286;SDS011;25998;46.604;13.610;2023-03-31T16:02:47;11.98;;;9.07;;
40286;SDS011;25998;46.604;13.610;2023-03-31T16:05:53;20.40;;;17.88;;
40286;SDS011;25998;46.604;13.610;2023-03-31T16:09:07;41.08;;;29.83;;
40286;SDS011;25998;46.604;13.610;2023-03-31T16:15:45;16.30;;;12.38;;
40286;SDS011;25998;46.604;13.610;2023-03-31T16:19:01;29.30;;;20.50;;
40286;SDS011;25998;46.604;13.610;2023-03-31T16:22:16;9.75;;;6.28;;
40286;SDS011;25998;46.604;13.610;2023-03-31T16:25:30;8.43;;;4.55;;
40286;SDS011;25998;46.604;13.610;2023-03-31T16:28:51;11.85;;;8.07;;
40286;SDS011;25998;46.604;13.610;2023-03-31T16:32:07;9.10;;;6.45;;
40286;SDS011;25998;46.604;13.610;2023-03-31T16:35:23;9.85;;;6.15;;
40286;SDS011;25998;46.604;13.610;2023-03-31T16:38:42;6.30;;;4.20;;
40286;SDS011;25998;46.604;13.610;2023-03-31T16:41:53;5.65;;;3.15;;
40286;SDS011;25998;46.604;13.610;2023-03-31T16:45:04;4.13;;;3.00;;
40286;SDS011;25998;46.604;13.610;2023-03-31T16:48:16;4.85;;;2.80;;
40286;SDS011;25998;46.604;13.610;2023-03-31T16:51:28;3.20;;;2.25;;
40286;SDS011;25998;46.604;13.610;2023-03-31T16:54:39;3.85;;;2.25;;
40286;SDS011;25998;46.604;13.610;2023-03-31T16:57:50;4.20;;;1.90;;
40286;SDS011;25998;46.604;13.610;2023-03-31T17:01:02;5.93;;;2.60;;
40286;SDS011;25998;46.604;13.610;2023-03-31T17:04:15;6.95;;;2.30;;
40286;SDS011;25998;46.604;13.610;2023-03-31T17:07:26;3.55;;;2.05;;
40286;SDS011;25998;46.604;13.610;2023-03-31T17:10:38;3.03;;;2.03;;
40286;SDS011;25998;46.604;13.610;2023-03-31T17:13:49;2.72;;;1.52;;
40286;SDS011;25998;46.604;13.610;2023-03-31T17:17:01;2.97;;;1.80;;
40286;SDS011;25998;46.604;13.610;2023-03-31T17:20:12;4.63;;;2.17;;
40286;SDS011;25998;46.604;13.610;2023-03-31T17:23:23;3.22;;;1.90;;
40286;SDS011;25998;46.604;13.610;2023-03-31T17:26:34;4.55;;;1.95;;
40286;SDS011;25998;46.604;13.610;2023-03-31T17:29:46;5.00;;;2.22;;
40286;SDS011;25998;46.604;13.610;2023-03-31T17:32:57;4.78;;;1.98;;
40286;SDS011;25998;46.604;13.610;2023-03-31T17:36:09;4.20;;;2.25;;
40286;SDS011;25998;46.604;13.610;2023-03-31T17:39:20;4.35;;;2.00;;
40286;SDS011;25998;46.604;13.610;2023-03-31T17:42:31;3.45;;;2.00;;
40286;SDS011;25998;46.604;13.610;2023-03-31T17:45:42;3.20;;;2.00;;
40286;SDS011;25998;46.604;13.610;2023-03-31T17:48:53;3.72;;;1.77;;
40286;SDS011;25998;46.604;13.610;2023-03-31T17:52:07;4.38;;;2.15;;
40286;SDS011;25998;46.604;13.610;2023-03-31T17:55:18;4.15;;;2.65;;
40286;SDS011;25998;46.604;13.610;2023-03-31T17:58:29;2.95;;;2.30;;
40286;SDS011;25998;46.604;13.610;2023-03-31T18:01:40;2.30;;;1.67;;
40286;SDS011;25998;46.604;13.610;2023-03-31T18:04:51;3.35;;;1.70;;
40286;SDS011;25998;46.604;13.610;2023-03-31T18:08:02;3.10;;;1.65;;
40286;SDS011;25998;46.604;13.610;2023-03-31T18:11:13;4.57;;;1.60;;
40286;SDS011;25998;46.604;13.610;2023-03-31T18:14:24;2.33;;;1.58;;
40286;SDS011;25998;46.604;13.610;2023-03-31T18:17:36;3.03;;;1.67;;
40286;SDS011;25998;46.604;13.610;2023-03-31T18:20:47;2.58;;;1.63;;
40286;SDS011;25998;46.604;13.610;2023-03-31T18:23:58;3.13;;;1.80;;
40286;SDS011;25998;46.604;13.610;2023-03-31T18:27:09;4.25;;;1.77;;
40286;SDS011;25998;46.604;13.610;2023-03-31T18:30:20;3.25;;;1.90;;
40286;SDS011;25998;46.604;13.610;2023-03-31T18:33:32;3.47;;;1.83;;
40286;SDS011;25998;46.604;13.610;2023-03-31T18:36:43;3.08;;;1.67;;
40286;SDS011;25998;46.604;13.610;2023-03-31T18:39:55;2.75;;;1.75;;
40286;SDS011;25998;46.604;13.610;2023-03-31T18:43:05;3.03;;;1.77;;
40286;SDS011;25998;46.604;13.610;2023-03-31T18:46:17;4.85;;;2.10;;
40286;SDS011;25998;46.604;13.610;2023-03-31T18:49:29;3.88;;;1.92;;
40286;SDS011;25998;46.604;13.610;2023-03-31T18:52:40;2.22;;;1.50;;
40286;SDS011;25998;46.604;13.610;2023-03-31T18:55:52;2.22;;;1.45;;
40286;SDS011;25998;46.604;13.610;2023-03-31T18:59:04;2.25;;;1.40;;
40286;SDS011;25998;46.604;13.610;2023-03-31T19:02:15;2.95;;;1.42;;
40286;SDS011;25998;46.604;13.610;2023-03-31T19:05:27;3.15;;;1.38;;
40286;SDS011;25998;46.604;13.610;2023-03-31T19:08:40;2.28;;;1.27;;
40286;SDS011;25998;46.604;13.610;2023-03-31T19:11:51;2.28;;;1.13;;
40286;SDS011;25998;46.604;13.610;2023-03-31T19:15:03;1.88;;;0.90;;
40286;SDS011;25998;46.604;13.610;2023-03-31T19:18:14;2.42;;;1.00;;
40286;SDS011;25998;46.604;13.610;2023-03-31T19:21:25;2.00;;;1.00;;
40286;SDS011;25998;46.604;13.610;2023-03-31T19:24:41;3.42;;;1.40;;
40286;SDS011;25998;46.604;13.610;2023-03-31T19:27:54;3.58;;;1.25;;
40286;SDS011;25998;46.604;13.610;2023-03-31T19:31:05;3.95;;;1.00;;
40286;SDS011;25998;46.604;13.610;2023-03-31T19:34:16;2.45;;;1.10;;
40286;SDS011;25998;46.604;13.610;2023-03-31T19:37:27;4.10;;;1.63;;
40286;SDS011;25998;46.604;13.610;2023-03-31T19:40:38;2.13;;;0.98;;
40286;SDS011;25998;46.604;13.610;2023-03-31T19:43:50;3.45;;;0.85;;
40286;SDS011;25998;46.604;13.610;2023-03-31T19:47:01;1.42;;;0.90;;
40286;SDS011;25998;46.604;13.610;2023-03-31T19:50:11;1.48;;;0.75;;
40286;SDS011;25998;46.604;13.610;2023-03-31T19:53:22;1.88;;;0.80;;
40286;SDS011;25998;46.604;13.610;2023-03-31T19:56:33;2.30;;;0.60;;
40286;SDS011;25998;46.604;13.610;2023-03-31T19:59:44;1.85;;;0.90;;
40286;SDS011;25998;46.604;13.610;2023-03-31T20:02:55;1.25;;;0.70;;
40286;SDS011;25998;46.604;13.610;2023-03-31T20:06:08;2.75;;;0.90;;
40286;SDS011;25998;46.604;13.610;2023-03-31T20:09:21;1.20;;;0.90;;
40286;SDS011;25998;46.604;13.610;2023-03-31T20:12:34;1.60;;;0.80;;
40286;SDS011;25998;46.604;13.610;2023-03-31T20:15:45;3.03;;;0.90;;
40286;SDS011;25998;46.604;13.610;2023-03-31T20:18:58;2.33;;;0.90;;
40286;SDS011;25998;46.604;13.610;2023-03-31T20:22:11;1.65;;;0.70;;
40286;SDS011;25998;46.604;13.610;2023-03-31T20:25:22;2.53;;;0.55;;
40286;SDS011;25998;46.604;13.610;2023-03-31T20:28:33;1.50;;;0.80;;
40286;SDS011;25998;46.604;13.610;2023-03-31T20:31:46;0.60;;;0.60;;
40286;SDS011;25998;46.604;13.610;2023-03-31T20:34:59;1.55;;;1.00;;
40286;SDS011;25998;46.604;13.610;2023-03-31T20:38:10;0.70;;;0.50;;
40286;SDS011;25998;46.604;13.610;2023-03-31T20:41:22;4.32;;;1.10;;
40286;SDS011;25998;46.604;13.610;2023-03-31T20:44:38;1.58;;;0.73;;
40286;SDS011;25998;46.604;13.610;2023-03-31T20:47:50;1.50;;;0.70;;
40286;SDS011;25998;46.604;13.610;2023-03-31T20:51:02;1.15;;;0.70;;
40286;SDS011;25998;46.604;13.610;2023-03-31T20:54:14;3.25;;;0.73;;
40286;SDS011;25998;46.604;13.610;2023-03-31T20:57:24;4.20;;;0.80;;
40286;SDS011;25998;46.604;13.610;2023-03-31T21:00:36;1.75;;;0.43;;
40286;SDS011;25998;46.604;13.610;2023-03-31T21:03:47;0.82;;;0.30;;
40286;SDS011;25998;46.604;13.610;2023-03-31T21:06:58;1.13;;;0.60;;
40286;SDS011;25998;46.604;13.610;2023-03-31T21:10:08;1.13;;;0.40;;
40286;SDS011;25998;46.604;13.610;2023-03-31T21:13:19;0.90;;;0.55;;
40286;SDS011;25998;46.604;13.610;2023-03-31T21:16:30;0.93;;;0.52;;
40286;SDS011;25998;46.604;13.610;2023-03-31T21:19:41;0.88;;;0.47;;
40286;SDS011;25998;46.604;13.610;2023-03-31T21:22:52;1.02;;;0.60;;
40286;SDS011;25998;46.604;13.610;2023-03-31T21:26:05;0.50;;;0.50;;
40286;SDS011;25998;46.604;13.610;2023-03-31T21:29:17;0.40;;;0.40;;
40286;SDS011;25998;46.604;13.610;2023-03-31T21:32:28;1.27;;;0.60;;
40286;SDS011;25998;46.604;13.610;2023-03-31T21:35:39;0.98;;;0.60;;
40286;SDS011;25998;46.604;13.610;2023-03-31T21:38:51;1.10;;;0.70;;
40286;SDS011;25998;46.604;13.610;2023-03-31T21:42:02;1.08;;;0.70;;
40286;SDS011;25998;46.604;13.610;2023-03-31T21:45:13;1.63;;;0.60;;
40286;SDS011;25998;46.604;13.610;2023-03-31T21:48:24;1.27;;;0.63;;
40286;SDS011;25998;46.604;13.610;2023-03-31T21:51:35;0.95;;;0.70;;
40286;SDS011;25998;46.604;13.610;2023-03-31T21:54:46;0.50;;;0.50;;
40286;SDS011;25998;46.604;13.610;2023-03-31T21:57:57;0.40;;;0.40;;
40286;SDS011;25998;46.604;13.610;2023-03-31T22:01:08;0.30;;;0.30;;
40286;SDS011;25998;46.604;13.610;2023-03-31T22:04:19;0.88;;;0.60;;
40286;SDS011;25998;46.604;13.610;2023-03-31T22:07:31;0.45;;;0.45;;
40286;SDS011;25998;46.604;13.610;2023-03-31T22:10:46;1.45;;;0.77;;
40286;SDS011;25998;46.604;13.610;2023-03-31T22:13:58;6.05;;;0.70;;